sensor_id;sensor_type;location;lat;lon;timestamp;P1;durP1;ratioP1;P2;durP2;ratioP2
27495;SDS011;14929;51.336;9.416;2022-10-04T00:01:05;1.90;;;1.77;;
27495;SDS011;14929;51.336;9.416;2022-10-04T00:03:38;4.90;;;3.40;;
27495;SDS011;14929;51.336;9.416;2022-10-04T00:06:13;4.47;;;3.65;;
27495;SDS011;14929;51.336;9.416;2022-10-04T00:08:44;4.13;;;2.63;;
27495;SDS011;14929;51.336;9.416;2022-10-04T00:11:16;4.15;;;3.65;;
27495;SDS011;14929;51.336;9.416;2022-10-04T00:13:49;3.70;;;2.72;;
27495;SDS011;14929;51.336;9.416;2022-10-04T00:16:20;6.97;;;4.63;;
27495;SDS011;14929;51.336;9.416;2022-10-04T00:19:00;7.95;;;5.05;;
27495;SDS011;14929;51.336;9.416;2022-10-04T00:25:01;3.42;;;3.13;;
27495;SDS011;14929;51.336;9.416;2022-10-04T00:31:12;2.38;;;1.80;;
27495;SDS011;14929;51.336;9.416;2022-10-04T00:33:49;3.20;;;1.55;;
27495;SDS011;14929;51.336;9.416;2022-10-04T00:39:24;1.50;;;1.40;;
27495;SDS011;14929;51.336;9.416;2022-10-04T00:42:15;1.45;;;1.35;;
27495;SDS011;14929;51.336;9.416;2022-10-04T00:45:06;1.42;;;1.25;;
27495;SDS011;14929;51.336;9.416;2022-10-04T00:47:52;2.05;;;1.63;;
27495;SDS011;14929;51.336;9.416;2022-10-04T00:50:43;4.32;;;1.50;;
27495;SDS011;14929;51.336;9.416;2022-10-04T00:53:20;2.20;;;2.00;;
27495;SDS011;14929;51.336;9.416;2022-10-04T00:56:11;2.00;;;1.70;;
27495;SDS011;14929;51.336;9.416;2022-10-04T00:58:44;1.77;;;1.67;;
27495;SDS011;14929;51.336;9.416;2022-10-04T01:01:35;2.92;;;2.10;;
27495;SDS011;14929;51.336;9.416;2022-10-04T01:04:03;2.90;;;2.30;;
27495;SDS011;14929;51.336;9.416;2022-10-04T01:06:37;2.72;;;2.00;;
27495;SDS011;14929;51.336;9.416;2022-10-04T01:09:07;2.67;;;2.47;;
27495;SDS011;14929;51.336;9.416;2022-10-04T01:11:37;2.92;;;2.22;;
27495;SDS011;14929;51.336;9.416;2022-10-04T01:14:09;2.38;;;2.20;;
27495;SDS011;14929;51.336;9.416;2022-10-04T01:16:45;2.25;;;2.10;;
27495;SDS011;14929;51.336;9.416;2022-10-04T01:22:11;2.33;;;2.10;;
27495;SDS011;14929;51.336;9.416;2022-10-04T01:24:55;2.63;;;2.40;;
27495;SDS011;14929;51.336;9.416;2022-10-04T01:27:30;5.20;;;3.58;;
27495;SDS011;14929;51.336;9.416;2022-10-04T01:30:00;3.70;;;2.83;;
27495;SDS011;14929;51.336;9.416;2022-10-04T01:32:31;3.40;;;2.80;;
27495;SDS011;14929;51.336;9.416;2022-10-04T01:34:59;3.05;;;2.80;;
27495;SDS011;14929;51.336;9.416;2022-10-04T01:37:28;2.83;;;2.55;;
27495;SDS011;14929;51.336;9.416;2022-10-04T01:39:55;3.47;;;2.25;;
27495;SDS011;14929;51.336;9.416;2022-10-04T01:42:24;2.05;;;1.95;;
27495;SDS011;14929;51.336;9.416;2022-10-04T01:44:55;1.80;;;1.70;;
27495;SDS011;14929;51.336;9.416;2022-10-04T01:47:29;1.52;;;1.42;;
27495;SDS011;14929;51.336;9.416;2022-10-04T01:50:01;1.15;;;1.15;;
27495;SDS011;14929;51.336;9.416;2022-10-04T01:52:33;1.60;;;1.50;;
27495;SDS011;14929;51.336;9.416;2022-10-04T01:55:04;1.42;;;1.33;;
27495;SDS011;14929;51.336;9.416;2022-10-04T01:57:36;2.47;;;1.52;;
27495;SDS011;14929;51.336;9.416;2022-10-04T02:00:07;1.90;;;1.80;;
27495;SDS011;14929;51.336;9.416;2022-10-04T02:02:39;1.50;;;1.40;;
27495;SDS011;14929;51.336;9.416;2022-10-04T02:05:10;3.45;;;2.10;;
27495;SDS011;14929;51.336;9.416;2022-10-04T02:07:42;2.70;;;2.50;;
27495;SDS011;14929;51.336;9.416;2022-10-04T02:10:16;1.80;;;1.70;;
27495;SDS011;14929;51.336;9.416;2022-10-04T02:12:46;3.03;;;2.83;;
27495;SDS011;14929;51.336;9.416;2022-10-04T02:15:16;2.97;;;2.78;;
27495;SDS011;14929;51.336;9.416;2022-10-04T02:17:45;2.60;;;2.40;;
27495;SDS011;14929;51.336;9.416;2022-10-04T02:20:14;1.85;;;1.75;;
27495;SDS011;14929;51.336;9.416;2022-10-04T02:22:45;1.90;;;1.80;;
27495;SDS011;14929;51.336;9.416;2022-10-04T02:25:17;2.58;;;2.35;;
27495;SDS011;14929;51.336;9.416;2022-10-04T02:27:45;1.73;;;1.50;;
27495;SDS011;14929;51.336;9.416;2022-10-04T02:30:13;1.70;;;1.60;;
27495;SDS011;14929;51.336;9.416;2022-10-04T02:32:41;1.70;;;1.60;;
27495;SDS011;14929;51.336;9.416;2022-10-04T02:35:24;2.05;;;1.95;;
27495;SDS011;14929;51.336;9.416;2022-10-04T02:38:00;1.00;;;1.00;;
27495;SDS011;14929;51.336;9.416;2022-10-04T02:40:34;2.17;;;1.98;;
27495;SDS011;14929;51.336;9.416;2022-10-04T02:43:08;2.30;;;2.20;;
27495;SDS011;14929;51.336;9.416;2022-10-04T02:45:41;1.80;;;1.70;;
27495;SDS011;14929;51.336;9.416;2022-10-04T02:51:05;1.50;;;1.40;;
27495;SDS011;14929;51.336;9.416;2022-10-04T02:53:46;1.20;;;1.20;;
27495;SDS011;14929;51.336;9.416;2022-10-04T02:56:25;1.98;;;1.88;;
27495;SDS011;14929;51.336;9.416;2022-10-04T02:58:53;1.67;;;1.58;;
27495;SDS011;14929;51.336;9.416;2022-10-04T03:01:25;1.10;;;1.10;;
27495;SDS011;14929;51.336;9.416;2022-10-04T03:04:02;1.20;;;1.20;;
27495;SDS011;14929;51.336;9.416;2022-10-04T03:06:30;1.40;;;1.30;;
27495;SDS011;14929;51.336;9.416;2022-10-04T03:09:00;1.08;;;1.08;;
27495;SDS011;14929;51.336;9.416;2022-10-04T03:11:32;0.88;;;0.88;;
27495;SDS011;14929;51.336;9.416;2022-10-04T03:14:02;1.38;;;1.27;;
27495;SDS011;14929;51.336;9.416;2022-10-04T03:16:33;2.13;;;1.88;;
27495;SDS011;14929;51.336;9.416;2022-10-04T03:19:02;1.55;;;1.48;;
27495;SDS011;14929;51.336;9.416;2022-10-04T03:21:31;1.50;;;1.40;;
27495;SDS011;14929;51.336;9.416;2022-10-04T03:24:00;1.23;;;1.13;;
27495;SDS011;14929;51.336;9.416;2022-10-04T03:26:31;1.35;;;1.25;;
27495;SDS011;14929;51.336;9.416;2022-10-04T03:29:04;1.58;;;1.48;;
27495;SDS011;14929;51.336;9.416;2022-10-04T03:31:35;1.63;;;1.52;;
27495;SDS011;14929;51.336;9.416;2022-10-04T03:34:05;1.60;;;1.50;;
27495;SDS011;14929;51.336;9.416;2022-10-04T03:36:39;2.70;;;2.50;;
27495;SDS011;14929;51.336;9.416;2022-10-04T03:39:09;1.85;;;1.70;;
27495;SDS011;14929;51.336;9.416;2022-10-04T03:41:38;1.90;;;1.80;;
27495;SDS011;14929;51.336;9.416;2022-10-04T03:44:06;1.55;;;1.48;;
27495;SDS011;14929;51.336;9.416;2022-10-04T03:46:37;1.60;;;1.50;;
27495;SDS011;14929;51.336;9.416;2022-10-04T03:49:04;1.80;;;1.70;;
27495;SDS011;14929;51.336;9.416;2022-10-04T03:51:34;1.63;;;1.52;;
27495;SDS011;14929;51.336;9.416;2022-10-04T03:54:01;1.40;;;1.38;;
27495;SDS011;14929;51.336;9.416;2022-10-04T03:56:32;1.50;;;1.40;;
27495;SDS011;14929;51.336;9.416;2022-10-04T03:59:01;1.00;;;1.00;;
27495;SDS011;14929;51.336;9.416;2022-10-04T04:01:35;1.02;;;1.02;;
27495;SDS011;14929;51.336;9.416;2022-10-04T04:04:06;1.30;;;1.30;;
27495;SDS011;14929;51.336;9.416;2022-10-04T04:06:44;1.38;;;1.27;;
27495;SDS011;14929;51.336;9.416;2022-10-04T04:09:18;1.50;;;1.40;;
27495;SDS011;14929;51.336;9.416;2022-10-04T04:11:50;1.45;;;1.40;;
27495;SDS011;14929;51.336;9.416;2022-10-04T04:14:23;1.50;;;1.40;;
27495;SDS011;14929;51.336;9.416;2022-10-04T04:16:52;1.92;;;1.83;;
27495;SDS011;14929;51.336;9.416;2022-10-04T04:19:21;1.27;;;1.27;;
27495;SDS011;14929;51.336;9.416;2022-10-04T04:21:50;1.20;;;1.20;;
27495;SDS011;14929;51.336;9.416;2022-10-04T04:24:22;1.33;;;1.23;;
27495;SDS011;14929;51.336;9.416;2022-10-04T04:26:55;1.10;;;1.10;;
27495;SDS011;14929;51.336;9.416;2022-10-04T04:29:25;1.85;;;1.75;;
27495;SDS011;14929;51.336;9.416;2022-10-04T04:31:58;1.73;;;1.63;;
27495;SDS011;14929;51.336;9.416;2022-10-04T04:34:29;1.80;;;1.67;;
27495;SDS011;14929;51.336;9.416;2022-10-04T04:37:17;2.38;;;2.25;;
27495;SDS011;14929;51.336;9.416;2022-10-04T04:39:47;2.78;;;2.58;;
27495;SDS011;14929;51.336;9.416;2022-10-04T04:42:22;3.00;;;2.80;;
27495;SDS011;14929;51.336;9.416;2022-10-04T04:44:57;2.83;;;2.63;;
27495;SDS011;14929;51.336;9.416;2022-10-04T04:47:27;2.42;;;2.33;;
27495;SDS011;14929;51.336;9.416;2022-10-04T04:50:03;3.28;;;1.85;;
27495;SDS011;14929;51.336;9.416;2022-10-04T04:52:33;1.77;;;1.67;;
27495;SDS011;14929;51.336;9.416;2022-10-04T04:55:02;1.52;;;1.42;;
27495;SDS011;14929;51.336;9.416;2022-10-04T04:57:32;1.67;;;1.58;;
27495;SDS011;14929;51.336;9.416;2022-10-04T05:00:00;1.40;;;1.30;;
27495;SDS011;14929;51.336;9.416;2022-10-04T05:02:29;1.70;;;1.60;;
27495;SDS011;14929;51.336;9.416;2022-10-04T05:05:15;1.60;;;1.50;;
27495;SDS011;14929;51.336;9.416;2022-10-04T05:07:45;1.70;;;1.60;;
27495;SDS011;14929;51.336;9.416;2022-10-04T05:10:20;1.42;;;1.33;;
27495;SDS011;14929;51.336;9.416;2022-10-04T05:12:57;1.98;;;1.88;;
27495;SDS011;14929;51.336;9.416;2022-10-04T05:15:26;1.65;;;1.55;;
27495;SDS011;14929;51.336;9.416;2022-10-04T05:17:57;1.73;;;1.63;;
27495;SDS011;14929;51.336;9.416;2022-10-04T05:20:26;1.80;;;1.70;;
27495;SDS011;14929;51.336;9.416;2022-10-04T05:22:53;1.50;;;1.40;;
27495;SDS011;14929;51.336;9.416;2022-10-04T05:25:24;1.60;;;1.50;;
27495;SDS011;14929;51.336;9.416;2022-10-04T05:27:54;1.80;;;1.70;;
27495;SDS011;14929;51.336;9.416;2022-10-04T05:30:32;2.20;;;2.05;;
27495;SDS011;14929;51.336;9.416;2022-10-04T05:33:12;2.33;;;2.22;;
27495;SDS011;14929;51.336;9.416;2022-10-04T05:35:49;1.88;;;1.77;;
27495;SDS011;14929;51.336;9.416;2022-10-04T05:38:32;1.70;;;1.60;;
27495;SDS011;14929;51.336;9.416;2022-10-04T05:41:05;1.67;;;1.58;;
27495;SDS011;14929;51.336;9.416;2022-10-04T05:43:36;1.83;;;1.73;;
27495;SDS011;14929;51.336;9.416;2022-10-04T05:46:14;1.70;;;1.60;;
27495;SDS011;14929;51.336;9.416;2022-10-04T05:48:46;1.80;;;1.70;;
27495;SDS011;14929;51.336;9.416;2022-10-04T05:51:21;1.95;;;1.85;;
27495;SDS011;14929;51.336;9.416;2022-10-04T05:53:52;1.60;;;1.50;;
27495;SDS011;14929;51.336;9.416;2022-10-04T05:56:34;2.08;;;1.98;;
27495;SDS011;14929;51.336;9.416;2022-10-04T05:59:35;2.00;;;1.90;;
27495;SDS011;14929;51.336;9.416;2022-10-04T06:02:19;1.63;;;1.52;;
27495;SDS011;14929;51.336;9.416;2022-10-04T06:04:59;1.92;;;1.83;;
27495;SDS011;14929;51.336;9.416;2022-10-04T06:07:37;2.15;;;2.05;;
27495;SDS011;14929;51.336;9.416;2022-10-04T06:10:14;2.58;;;2.38;;
27495;SDS011;14929;51.336;9.416;2022-10-04T06:12:58;3.20;;;2.95;;
27495;SDS011;14929;51.336;9.416;2022-10-04T06:15:43;2.90;;;2.70;;
27495;SDS011;14929;51.336;9.416;2022-10-04T06:18:29;3.08;;;2.88;;
27495;SDS011;14929;51.336;9.416;2022-10-04T06:21:24;2.55;;;2.35;;
27495;SDS011;14929;51.336;9.416;2022-10-04T06:23:56;2.95;;;2.75;;
27495;SDS011;14929;51.336;9.416;2022-10-04T06:26:28;2.50;;;2.30;;
27495;SDS011;14929;51.336;9.416;2022-10-04T06:29:00;2.60;;;2.40;;
27495;SDS011;14929;51.336;9.416;2022-10-04T06:31:45;2.55;;;2.35;;
27495;SDS011;14929;51.336;9.416;2022-10-04T06:40:56;2.38;;;2.17;;
27495;SDS011;14929;51.336;9.416;2022-10-04T06:43:49;1.70;;;1.60;;
27495;SDS011;14929;51.336;9.416;2022-10-04T06:46:28;2.75;;;2.55;;
27495;SDS011;14929;51.336;9.416;2022-10-04T06:49:12;3.63;;;2.85;;
27495;SDS011;14929;51.336;9.416;2022-10-04T06:58:09;2.53;;;2.33;;
27495;SDS011;14929;51.336;9.416;2022-10-04T07:00:58;2.35;;;2.25;;
27495;SDS011;14929;51.336;9.416;2022-10-04T07:03:31;2.40;;;2.20;;
27495;SDS011;14929;51.336;9.416;2022-10-04T07:06:06;1.90;;;1.80;;
27495;SDS011;14929;51.336;9.416;2022-10-04T07:08:36;2.40;;;2.20;;
27495;SDS011;14929;51.336;9.416;2022-10-04T07:11:11;2.25;;;2.05;;
27495;SDS011;14929;51.336;9.416;2022-10-04T07:13:42;2.58;;;2.38;;
27495;SDS011;14929;51.336;9.416;2022-10-04T07:19:07;2.55;;;2.35;;
27495;SDS011;14929;51.336;9.416;2022-10-04T07:21:52;2.63;;;2.42;;
27495;SDS011;14929;51.336;9.416;2022-10-04T07:24:25;4.65;;;4.25;;
27495;SDS011;14929;51.336;9.416;2022-10-04T07:27:06;3.92;;;3.55;;
27495;SDS011;14929;51.336;9.416;2022-10-04T07:29:36;2.92;;;2.65;;
27495;SDS011;14929;51.336;9.416;2022-10-04T07:32:06;3.75;;;3.45;;
27495;SDS011;14929;51.336;9.416;2022-10-04T07:34:41;3.90;;;3.50;;
27495;SDS011;14929;51.336;9.416;2022-10-04T07:37:13;4.20;;;3.80;;
27495;SDS011;14929;51.336;9.416;2022-10-04T07:39:43;3.30;;;3.10;;
27495;SDS011;14929;51.336;9.416;2022-10-04T07:42:21;3.83;;;3.53;;
27495;SDS011;14929;51.336;9.416;2022-10-04T07:44:59;3.58;;;3.00;;
27495;SDS011;14929;51.336;9.416;2022-10-04T07:47:36;2.72;;;2.53;;
27495;SDS011;14929;51.336;9.416;2022-10-04T07:50:18;3.28;;;2.97;;
27495;SDS011;14929;51.336;9.416;2022-10-04T07:52:56;2.80;;;2.60;;
27495;SDS011;14929;51.336;9.416;2022-10-04T07:55:27;4.07;;;3.67;;
27495;SDS011;14929;51.336;9.416;2022-10-04T07:58:01;5.20;;;4.30;;
27495;SDS011;14929;51.336;9.416;2022-10-04T08:00:43;5.28;;;4.30;;
27495;SDS011;14929;51.336;9.416;2022-10-04T08:03:21;7.40;;;5.65;;
27495;SDS011;14929;51.336;9.416;2022-10-04T08:06:17;4.13;;;3.72;;
27495;SDS011;14929;51.336;9.416;2022-10-04T08:09:04;5.00;;;4.60;;
27495;SDS011;14929;51.336;9.416;2022-10-04T08:11:49;3.97;;;3.67;;
27495;SDS011;14929;51.336;9.416;2022-10-04T08:14:26;3.88;;;3.28;;
27495;SDS011;14929;51.336;9.416;2022-10-04T08:17:11;3.85;;;3.55;;
27495;SDS011;14929;51.336;9.416;2022-10-04T08:19:49;3.10;;;2.80;;
27495;SDS011;14929;51.336;9.416;2022-10-04T08:22:29;3.55;;;3.25;;
27495;SDS011;14929;51.336;9.416;2022-10-04T08:25:09;2.90;;;2.55;;
27495;SDS011;14929;51.336;9.416;2022-10-04T08:27:45;5.55;;;3.60;;
27495;SDS011;14929;51.336;9.416;2022-10-04T08:30:39;4.45;;;2.95;;
27495;SDS011;14929;51.336;9.416;2022-10-04T08:33:25;4.07;;;3.25;;
27495;SDS011;14929;51.336;9.416;2022-10-04T08:36:10;5.05;;;3.97;;
27495;SDS011;14929;51.336;9.416;2022-10-04T08:38:51;5.00;;;4.15;;
27495;SDS011;14929;51.336;9.416;2022-10-04T08:41:30;4.32;;;3.55;;
27495;SDS011;14929;51.336;9.416;2022-10-04T08:44:43;4.60;;;4.20;;
27495;SDS011;14929;51.336;9.416;2022-10-04T08:54:55;4.88;;;4.32;;
27495;SDS011;14929;51.336;9.416;2022-10-04T08:58:07;3.90;;;3.60;;
27495;SDS011;14929;51.336;9.416;2022-10-04T09:11:12;4.35;;;3.95;;
27495;SDS011;14929;51.336;9.416;2022-10-04T09:14:04;4.25;;;3.85;;
27495;SDS011;14929;51.336;9.416;2022-10-04T09:17:01;5.57;;;4.03;;
27495;SDS011;14929;51.336;9.416;2022-10-04T09:19:46;6.43;;;4.13;;
27495;SDS011;14929;51.336;9.416;2022-10-04T09:22:27;8.88;;;3.95;;
27495;SDS011;14929;51.336;9.416;2022-10-04T09:25:22;4.80;;;3.50;;
27495;SDS011;14929;51.336;9.416;2022-10-04T09:28:02;4.38;;;3.97;;
27495;SDS011;14929;51.336;9.416;2022-10-04T09:30:56;5.57;;;3.92;;
27495;SDS011;14929;51.336;9.416;2022-10-04T09:33:45;4.40;;;3.35;;
27495;SDS011;14929;51.336;9.416;2022-10-04T09:36:45;4.13;;;3.78;;
27495;SDS011;14929;51.336;9.416;2022-10-04T09:39:50;4.90;;;4.40;;
27495;SDS011;14929;51.336;9.416;2022-10-04T09:43:20;4.60;;;3.95;;
27495;SDS011;14929;51.336;9.416;2022-10-04T09:46:03;4.10;;;3.70;;
27495;SDS011;14929;51.336;9.416;2022-10-04T09:48:46;4.15;;;3.75;;
27495;SDS011;14929;51.336;9.416;2022-10-04T09:51:29;3.10;;;2.80;;
27495;SDS011;14929;51.336;9.416;2022-10-04T09:57:39;4.88;;;3.47;;
27495;SDS011;14929;51.336;9.416;2022-10-04T10:00:20;5.57;;;3.22;;
27495;SDS011;14929;51.336;9.416;2022-10-04T10:03:04;4.72;;;3.33;;
27495;SDS011;14929;51.336;9.416;2022-10-04T10:05:55;5.50;;;3.33;;
27495;SDS011;14929;51.336;9.416;2022-10-04T10:09:11;3.67;;;3.08;;
27495;SDS011;14929;51.336;9.416;2022-10-04T10:12:16;4.93;;;3.38;;
27495;SDS011;14929;51.336;9.416;2022-10-04T10:15:17;4.05;;;3.35;;
27495;SDS011;14929;51.336;9.416;2022-10-04T10:17:53;3.10;;;2.38;;
27495;SDS011;14929;51.336;9.416;2022-10-04T10:20:31;3.97;;;2.70;;
27495;SDS011;14929;51.336;9.416;2022-10-04T10:26:51;6.13;;;3.88;;
27495;SDS011;14929;51.336;9.416;2022-10-04T10:29:36;5.93;;;3.00;;
27495;SDS011;14929;51.336;9.416;2022-10-04T10:32:59;4.35;;;2.70;;
27495;SDS011;14929;51.336;9.416;2022-10-04T10:36:14;5.22;;;3.78;;
27495;SDS011;14929;51.336;9.416;2022-10-04T10:38:52;3.80;;;3.20;;
27495;SDS011;14929;51.336;9.416;2022-10-04T10:41:44;3.85;;;2.92;;
27495;SDS011;14929;51.336;9.416;2022-10-04T10:47:35;3.60;;;2.90;;
27495;SDS011;14929;51.336;9.416;2022-10-04T10:50:18;3.53;;;3.05;;
27495;SDS011;14929;51.336;9.416;2022-10-04T10:56:54;2.78;;;2.50;;
27495;SDS011;14929;51.336;9.416;2022-10-04T10:59:41;3.78;;;3.17;;
27495;SDS011;14929;51.336;9.416;2022-10-04T11:09:31;4.22;;;2.47;;
27495;SDS011;14929;51.336;9.416;2022-10-04T11:12:15;2.95;;;2.05;;
27495;SDS011;14929;51.336;9.416;2022-10-04T11:18:28;2.97;;;2.72;;
27495;SDS011;14929;51.336;9.416;2022-10-04T11:25:25;2.90;;;2.15;;
27495;SDS011;14929;51.336;9.416;2022-10-04T11:28:25;2.15;;;1.90;;
27495;SDS011;14929;51.336;9.416;2022-10-04T11:31:15;1.95;;;1.85;;
27495;SDS011;14929;51.336;9.416;2022-10-04T11:34:31;3.97;;;2.60;;
27495;SDS011;14929;51.336;9.416;2022-10-04T11:37:29;3.33;;;2.67;;
27495;SDS011;14929;51.336;9.416;2022-10-04T11:40:15;6.03;;;3.63;;
27495;SDS011;14929;51.336;9.416;2022-10-04T11:43:17;3.17;;;2.33;;
27495;SDS011;14929;51.336;9.416;2022-10-04T11:46:06;5.88;;;3.17;;
27495;SDS011;14929;51.336;9.416;2022-10-04T11:48:47;3.60;;;2.55;;
27495;SDS011;14929;51.336;9.416;2022-10-04T11:51:49;4.53;;;3.03;;
27495;SDS011;14929;51.336;9.416;2022-10-04T11:55:00;4.78;;;3.72;;
27495;SDS011;14929;51.336;9.416;2022-10-04T11:58:01;3.20;;;2.78;;
27495;SDS011;14929;51.336;9.416;2022-10-04T12:00:42;2.70;;;2.50;;
27495;SDS011;14929;51.336;9.416;2022-10-04T12:03:34;2.78;;;2.50;;
27495;SDS011;14929;51.336;9.416;2022-10-04T12:06:43;4.57;;;3.25;;
27495;SDS011;14929;51.336;9.416;2022-10-04T12:09:22;4.22;;;2.78;;
27495;SDS011;14929;51.336;9.416;2022-10-04T12:12:10;3.50;;;2.70;;
27495;SDS011;14929;51.336;9.416;2022-10-04T12:18:22;3.03;;;2.33;;
27495;SDS011;14929;51.336;9.416;2022-10-04T12:27:43;3.15;;;2.72;;
27495;SDS011;14929;51.336;9.416;2022-10-04T12:30:42;3.03;;;2.10;;
27495;SDS011;14929;51.336;9.416;2022-10-04T12:33:29;3.10;;;2.40;;
27495;SDS011;14929;51.336;9.416;2022-10-04T12:36:04;2.55;;;2.13;;
27495;SDS011;14929;51.336;9.416;2022-10-04T12:38:53;1.60;;;1.50;;
27495;SDS011;14929;51.336;9.416;2022-10-04T12:41:31;2.42;;;2.08;;
27495;SDS011;14929;51.336;9.416;2022-10-04T12:44:15;2.83;;;2.15;;
27495;SDS011;14929;51.336;9.416;2022-10-04T12:46:56;3.60;;;1.83;;
27495;SDS011;14929;51.336;9.416;2022-10-04T12:49:48;1.98;;;1.60;;
27495;SDS011;14929;51.336;9.416;2022-10-04T12:52:21;2.35;;;1.63;;
27495;SDS011;14929;51.336;9.416;2022-10-04T12:54:52;2.72;;;1.95;;
27495;SDS011;14929;51.336;9.416;2022-10-04T12:57:28;1.77;;;1.60;;
27495;SDS011;14929;51.336;9.416;2022-10-04T13:00:14;2.22;;;2.03;;
27495;SDS011;14929;51.336;9.416;2022-10-04T13:02:49;1.63;;;1.50;;
27495;SDS011;14929;51.336;9.416;2022-10-04T13:05:36;2.45;;;1.80;;
27495;SDS011;14929;51.336;9.416;2022-10-04T13:08:17;2.45;;;2.08;;
27495;SDS011;14929;51.336;9.416;2022-10-04T13:11:06;3.75;;;2.05;;
27495;SDS011;14929;51.336;9.416;2022-10-04T13:13:56;1.70;;;1.60;;
27495;SDS011;14929;51.336;9.416;2022-10-04T13:17:02;1.85;;;1.60;;
27495;SDS011;14929;51.336;9.416;2022-10-04T13:19:43;1.50;;;1.40;;
27495;SDS011;14929;51.336;9.416;2022-10-04T13:22:31;1.77;;;1.50;;
27495;SDS011;14929;51.336;9.416;2022-10-04T13:25:23;2.00;;;1.80;;
27495;SDS011;14929;51.336;9.416;2022-10-04T13:28:04;2.13;;;1.58;;
27495;SDS011;14929;51.336;9.416;2022-10-04T13:30:45;1.90;;;1.70;;
27495;SDS011;14929;51.336;9.416;2022-10-04T13:33:18;3.88;;;1.55;;
27495;SDS011;14929;51.336;9.416;2022-10-04T13:35:52;1.95;;;1.52;;
27495;SDS011;14929;51.336;9.416;2022-10-04T13:41:51;1.38;;;1.15;;
27495;SDS011;14929;51.336;9.416;2022-10-04T13:51:24;2.28;;;1.80;;
27495;SDS011;14929;51.336;9.416;2022-10-04T13:54:17;1.60;;;1.50;;
27495;SDS011;14929;51.336;9.416;2022-10-04T13:57:19;1.88;;;1.52;;
27495;SDS011;14929;51.336;9.416;2022-10-04T13:59:58;1.48;;;1.38;;
27495;SDS011;14929;51.336;9.416;2022-10-04T14:05:49;1.42;;;1.20;;
27495;SDS011;14929;51.336;9.416;2022-10-04T14:09:14;6.57;;;2.90;;
27495;SDS011;14929;51.336;9.416;2022-10-04T14:12:04;6.15;;;2.83;;
27495;SDS011;14929;51.336;9.416;2022-10-04T14:14:49;2.88;;;1.92;;
27495;SDS011;14929;51.336;9.416;2022-10-04T14:27:42;3.33;;;1.42;;
27495;SDS011;14929;51.336;9.416;2022-10-04T14:30:30;1.40;;;1.30;;
27495;SDS011;14929;51.336;9.416;2022-10-04T14:33:33;2.53;;;1.33;;
27495;SDS011;14929;51.336;9.416;2022-10-04T14:36:47;1.60;;;1.50;;
27495;SDS011;14929;51.336;9.416;2022-10-04T14:39:47;1.30;;;1.20;;
27495;SDS011;14929;51.336;9.416;2022-10-04T14:42:48;1.20;;;1.10;;
27495;SDS011;14929;51.336;9.416;2022-10-04T14:45:38;1.25;;;1.17;;
27495;SDS011;14929;51.336;9.416;2022-10-04T14:51:15;2.38;;;1.80;;
27495;SDS011;14929;51.336;9.416;2022-10-04T14:54:05;1.70;;;1.60;;
27495;SDS011;14929;51.336;9.416;2022-10-04T14:56:44;1.50;;;1.40;;
27495;SDS011;14929;51.336;9.416;2022-10-04T14:59:29;1.02;;;1.02;;
27495;SDS011;14929;51.336;9.416;2022-10-04T15:02:41;1.30;;;1.20;;
27495;SDS011;14929;51.336;9.416;2022-10-04T15:05:25;2.58;;;1.33;;
27495;SDS011;14929;51.336;9.416;2022-10-04T15:08:11;1.20;;;1.10;;
27495;SDS011;14929;51.336;9.416;2022-10-04T15:10:56;1.35;;;1.25;;
27495;SDS011;14929;51.336;9.416;2022-10-04T15:13:28;1.27;;;1.10;;
27495;SDS011;14929;51.336;9.416;2022-10-04T15:16:12;2.15;;;1.80;;
27495;SDS011;14929;51.336;9.416;2022-10-04T15:18:51;1.13;;;0.95;;
27495;SDS011;14929;51.336;9.416;2022-10-04T15:21:32;1.27;;;1.17;;
27495;SDS011;14929;51.336;9.416;2022-10-04T15:24:24;1.20;;;1.10;;
27495;SDS011;14929;51.336;9.416;2022-10-04T15:27:06;1.10;;;1.00;;
27495;SDS011;14929;51.336;9.416;2022-10-04T15:30:19;1.20;;;1.13;;
27495;SDS011;14929;51.336;9.416;2022-10-04T15:33:05;1.55;;;1.10;;
27495;SDS011;14929;51.336;9.416;2022-10-04T15:36:02;1.17;;;1.08;;
27495;SDS011;14929;51.336;9.416;2022-10-04T15:38:59;1.50;;;1.10;;
27495;SDS011;14929;51.336;9.416;2022-10-04T15:41:33;1.30;;;1.17;;
27495;SDS011;14929;51.336;9.416;2022-10-04T15:47:54;1.40;;;1.30;;
27495;SDS011;14929;51.336;9.416;2022-10-04T15:50:36;0.90;;;0.90;;
27495;SDS011;14929;51.336;9.416;2022-10-04T15:56:21;2.90;;;1.30;;
27495;SDS011;14929;51.336;9.416;2022-10-04T15:59:04;2.15;;;1.42;;
27495;SDS011;14929;51.336;9.416;2022-10-04T16:02:03;2.53;;;1.27;;
27495;SDS011;14929;51.336;9.416;2022-10-04T16:05:13;1.00;;;1.00;;
27495;SDS011;14929;51.336;9.416;2022-10-04T16:07:57;1.17;;;1.10;;
27495;SDS011;14929;51.336;9.416;2022-10-04T16:10:50;1.00;;;1.00;;
27495;SDS011;14929;51.336;9.416;2022-10-04T16:13:51;1.17;;;1.10;;
27495;SDS011;14929;51.336;9.416;2022-10-04T16:20:26;1.20;;;1.10;;
27495;SDS011;14929;51.336;9.416;2022-10-04T16:23:23;1.13;;;1.02;;
27495;SDS011;14929;51.336;9.416;2022-10-04T16:25:58;0.82;;;0.82;;
27495;SDS011;14929;51.336;9.416;2022-10-04T16:28:37;1.38;;;0.80;;
27495;SDS011;14929;51.336;9.416;2022-10-04T16:37:27;1.00;;;1.00;;
27495;SDS011;14929;51.336;9.416;2022-10-04T16:40:00;1.20;;;1.10;;
27495;SDS011;14929;51.336;9.416;2022-10-04T16:42:48;2.05;;;1.30;;
27495;SDS011;14929;51.336;9.416;2022-10-04T16:48:44;1.27;;;1.17;;
27495;SDS011;14929;51.336;9.416;2022-10-04T16:54:42;1.25;;;1.15;;
27495;SDS011;14929;51.336;9.416;2022-10-04T16:57:25;2.90;;;1.30;;
27495;SDS011;14929;51.336;9.416;2022-10-04T16:59:56;2.22;;;1.35;;
27495;SDS011;14929;51.336;9.416;2022-10-04T17:02:35;1.20;;;1.10;;
27495;SDS011;14929;51.336;9.416;2022-10-04T17:05:20;1.27;;;1.00;;
27495;SDS011;14929;51.336;9.416;2022-10-04T17:08:24;0.90;;;0.90;;
27495;SDS011;14929;51.336;9.416;2022-10-04T17:11:30;1.75;;;1.10;;
27495;SDS011;14929;51.336;9.416;2022-10-04T17:14:20;1.08;;;1.08;;
27495;SDS011;14929;51.336;9.416;2022-10-04T17:17:15;1.77;;;1.25;;
27495;SDS011;14929;51.336;9.416;2022-10-04T17:20:01;1.58;;;1.48;;
27495;SDS011;14929;51.336;9.416;2022-10-04T17:22:35;3.35;;;1.27;;
27495;SDS011;14929;51.336;9.416;2022-10-04T17:25:23;1.00;;;1.00;;
27495;SDS011;14929;51.336;9.416;2022-10-04T17:28:09;1.23;;;1.17;;
27495;SDS011;14929;51.336;9.416;2022-10-04T17:30:52;1.25;;;1.25;;
27495;SDS011;14929;51.336;9.416;2022-10-04T17:33:35;2.85;;;1.85;;
27495;SDS011;14929;51.336;9.416;2022-10-04T17:36:32;2.17;;;1.75;;
27495;SDS011;14929;51.336;9.416;2022-10-04T17:39:10;1.85;;;1.50;;
27495;SDS011;14929;51.336;9.416;2022-10-04T17:42:01;2.15;;;1.90;;
27495;SDS011;14929;51.336;9.416;2022-10-04T17:44:55;3.47;;;2.63;;
27495;SDS011;14929;51.336;9.416;2022-10-04T17:47:42;3.42;;;2.60;;
27495;SDS011;14929;51.336;9.416;2022-10-04T17:50:32;3.17;;;2.60;;
27495;SDS011;14929;51.336;9.416;2022-10-04T17:53:23;3.08;;;1.70;;
27495;SDS011;14929;51.336;9.416;2022-10-04T17:56:11;2.58;;;1.70;;
27495;SDS011;14929;51.336;9.416;2022-10-04T17:58:41;2.40;;;2.20;;
27495;SDS011;14929;51.336;9.416;2022-10-04T18:01:16;2.63;;;1.60;;
27495;SDS011;14929;51.336;9.416;2022-10-04T18:03:50;1.92;;;1.83;;
27495;SDS011;14929;51.336;9.416;2022-10-04T18:06:27;1.80;;;1.63;;
27495;SDS011;14929;51.336;9.416;2022-10-04T18:08:59;2.03;;;1.45;;
27495;SDS011;14929;51.336;9.416;2022-10-04T18:11:32;2.53;;;1.70;;
27495;SDS011;14929;51.336;9.416;2022-10-04T18:14:11;1.75;;;1.65;;
27495;SDS011;14929;51.336;9.416;2022-10-04T18:16:50;2.08;;;1.63;;
27495;SDS011;14929;51.336;9.416;2022-10-04T18:19:34;2.45;;;1.67;;
27495;SDS011;14929;51.336;9.416;2022-10-04T18:22:15;2.05;;;1.33;;
27495;SDS011;14929;51.336;9.416;2022-10-04T18:25:01;2.83;;;1.42;;
27495;SDS011;14929;51.336;9.416;2022-10-04T18:27:46;9.40;;;1.73;;
27495;SDS011;14929;51.336;9.416;2022-10-04T18:30:20;2.47;;;1.20;;